首页
METAR-TAF:

METAR-TAF

机场 :

马哈赞加, 马达加斯加

纬度: 15-40S, 经度: 046-21E, 海拔: 26米

当前天气观测

该预报发布于1小时和4分钟前的14:00 UTC
风速6节,风向东南,在南转南东之间变化
温度 33°C
湿度 41%
气压 1014 hPa
能见度10公里或以上
少量云层高于2300英尺

METAR: FMNM 171400Z 13006KT 100V160 9999 FEW023 33/18 Q1014 NOSIG

时间: 18:04 (15:04 UTC)

预报

该预报发布于4小时和4分钟前的11:00 UTC
预报有效从17日的 12点(UTC)到 18日的 12点(UTC)
风速5节,风向多变
能见度10公里或以上
少量云层高于4000英尺

TAF: FMNM 171100Z 1712/1812 VRB05KT 9999 FEW040

超过4000个机场的气象观测和天气预报(METAR&TAF报告)。

可查询的气象台以黄色和红色小点在地图上表示。

将鼠标移到小点上方,可查看气象台名称。

然后点击查看天气观测和预报。

如需切换地图:点击带黑十字的绿色按钮放大地图;点击带横线的绿色按钮缩小地图;或者点击绿色箭头查看邻近地区的地图。


METAR-TAF: